Stations météo

réclame
Mon MeteoGroup
Fuengirola, Espagne (8480): Température de l'air & dewpoint: 14.08.2018 19:00:00 - 20.08.2018 19:00:00 (CEST)Fuengirola, Espagne (8480): Vitesse du vent & gusts: 14.08.2018 19:00:00 - 20.08.2018 19:00:00 (CEST)Fuengirola, Espagne (8480): Direction du vent: 14.08.2018 19:00:00 - 20.08.2018 19:00:00 (CEST)Fuengirola, Espagne (8480): Quantités de précipitations: 14.08.2018 19:00:00 - 20.08.2018 19:00:00 (CEST)
Date & Time tt [°C] td [°C] ff [km/h] ff [knt] fx [km/h] fx [knt] dd rr [mm]
20.08.2018 19:00:00 - - - - - - - -
20.08.2018 18:00:00 27,4 23,4 7 4 16 8 ESE 0,0
20.08.2018 17:00:00 27,4 23,0 9 5 16 9 ESE 0,0
20.08.2018 16:00:00 27,3 22,7 8 4 14 8 SE 0,0
20.08.2018 15:00:00 27,2 22,6 8 4 16 9 SE 0,0
20.08.2018 14:00:00 27,0 22,4 5 3 11 6 ESE -
20.08.2018 13:00:00 26,4 22,5 4 2 10 6 E 0,0
20.08.2018 12:00:00 26,1 22,6 5 3 13 7 E 0,0
20.08.2018 11:00:00 25,3 23,0 3 2 8 4 ENE 0,0
20.08.2018 10:00:00 24,7 22,9 3 2 9 5 E 0,0
20.08.2018 09:00:00 24,7 22,9 2 1 6 3 SW 0,0
20.08.2018 08:00:00 24,6 22,7 4 2 14 8 ESE -
20.08.2018 07:00:00 24,7 22,8 2 1 6 3 E 0,0
20.08.2018 06:00:00 25,0 23,1 3 2 9 5 E 0,0
20.08.2018 05:00:00 25,0 23,1 7 4 15 8 ENE 0,0
20.08.2018 04:00:00 25,1 22,8 9 5 13 7 ENE 0,0
20.08.2018 03:00:00 25,0 22,7 11 6 16 9 ENE 0,0
20.08.2018 02:00:00 24,9 22,6 8 4 12 6 ENE -
20.08.2018 01:00:00 25,2 22,5 6 3 14 8 ENE 0,0
20.08.2018 00:00:00 25,4 22,3 7 4 13 7 ENE 0,0
19.08.2018 23:00:00 25,6 22,3 7 4 12 7 NE 0,0
19.08.2018 22:00:00 25,8 21,9 4 2 8 5 NE 0,0
19.08.2018 21:00:00 26,0 21,9 1 1 6 4 NE 0,0
19.08.2018 20:00:00 26,5 23,0 3 2 8 4 S -
19.08.2018 19:00:00 26,7 23,4 1 1 7 4 S 0,0
19.08.2018 18:00:00 26,8 23,5 4 2 9 5 E 0,0
19.08.2018 17:00:00 26,1 23,4 4 2 16 8 S 0,0
19.08.2018 16:00:00 25,0 23,1 10 5 18 10 SSW 0,0
19.08.2018 15:00:00 25,0 23,1 7 4 18 10 SSW 0,0
19.08.2018 14:00:00 24,4 22,7 14 7 23 12 SSW -
19.08.2018 13:00:00 24,5 22,7 14 7 21 12 SSW 0,0
19.08.2018 12:00:00 24,4 22,7 12 7 18 10 SSW 0,0
19.08.2018 11:00:00 24,4 22,7 11 6 18 10 SSW 0,0
19.08.2018 10:00:00 24,5 22,9 4 2 9 5 SSW 0,0
19.08.2018 09:00:00 25,0 22,9 4 2 9 5 S 0,0
19.08.2018 08:00:00 24,9 22,6 8 5 16 9 SE -
19.08.2018 07:00:00 25,0 22,7 2 1 8 5 W 0,0
19.08.2018 06:00:00 25,1 22,8 4 2 9 5 W 0,0
19.08.2018 05:00:00 24,8 23,0 3 2 6 3 NNW 0,0
19.08.2018 04:00:00 24,9 23,1 5 3 12 6 E 0,0
19.08.2018 03:00:00 25,0 23,2 9 5 16 9 E 0,0
19.08.2018 02:00:00 24,9 23,1 8 5 17 9 ENE -
19.08.2018 01:00:00 25,2 22,9 9 5 14 8 ENE 0,0
19.08.2018 00:00:00 25,4 23,1 5 3 13 7 NE 0,0
18.08.2018 23:00:00 25,5 23,2 5 3 10 5 ENE 0,0
18.08.2018 22:00:00 25,8 23,1 6 3 11 6 ENE 0,0
18.08.2018 21:00:00 26,1 23,0 6 4 16 8 ENE 0,0
18.08.2018 20:00:00 26,9 24,0 9 5 19 10 E -
18.08.2018 19:00:00 27,2 23,9 7 4 13 7 ENE 0,0
18.08.2018 18:00:00 27,7 24,1 6 4 16 9 E 0,0
18.08.2018 17:00:00 27,7 24,1 7 4 13 7 E 0,0
18.08.2018 16:00:00 27,5 24,3 8 4 13 7 E 0,0
18.08.2018 15:00:00 27,5 24,5 7 4 11 6 E 0,0
18.08.2018 14:00:00 27,2 24,3 8 4 13 7 E -
18.08.2018 13:00:00 26,8 23,9 8 4 14 7 E 0,0
18.08.2018 12:00:00 26,2 23,7 8 5 16 9 E 0,0
18.08.2018 11:00:00 25,7 23,6 13 7 21 11 E 0,0
18.08.2018 10:00:00 25,2 23,3 11 6 18 10 ENE 0,0
18.08.2018 09:00:00 24,5 23,1 9 5 16 9 ENE 0,0
18.08.2018 08:00:00 24,6 23,2 10 6 18 10 ENE -
18.08.2018 07:00:00 24,4 22,1 8 5 14 8 ENE 0,0
18.08.2018 06:00:00 23,9 21,0 6 4 11 6 NE 0,0
18.08.2018 05:00:00 23,8 19,9 3 1 5 3 NE 0,0
18.08.2018 04:00:00 23,7 19,0 3 2 6 3 NE 0,0
18.08.2018 03:00:00 23,6 18,9 0 0 5 3 NNW 0,0
18.08.2018 02:00:00 23,6 19,5 1 0 8 4 WSW -
18.08.2018 01:00:00 23,3 21,6 2 1 6 4 W 0,0
18.08.2018 00:00:00 24,1 22,7 0 0 8 5 NE 0,0
17.08.2018 23:00:00 24,1 21,8 0 0 4 2 ENE 0,0
17.08.2018 22:00:00 24,2 21,7 0 0 6 3 S 0,0
17.08.2018 21:00:00 24,6 21,9 1 1 6 3 WSW 0,0
17.08.2018 20:00:00 24,8 22,5 1 1 8 5 SE -
17.08.2018 19:00:00 25,0 22,5 5 3 8 5 SSE 0,0
17.08.2018 18:00:00 24,7 22,4 2 1 9 5 SSW 0,0
17.08.2018 17:00:00 24,6 22,3 6 3 15 8 SSW 0,0
17.08.2018 16:00:00 24,3 21,8 10 5 16 9 SSW 0,0
17.08.2018 15:00:00 24,1 22,0 10 5 15 8 SSW 0,0
17.08.2018 14:00:00 24,0 22,3 9 5 18 10 S -
17.08.2018 13:00:00 23,5 22,1 11 6 22 12 SSW 0,0
17.08.2018 12:00:00 24,6 22,3 13 7 22 12 SSW 0,0
17.08.2018 11:00:00 25,0 21,3 7 4 18 10 SW 0,0
17.08.2018 10:00:00 24,4 21,5 8 4 13 7 SSW 0,0
17.08.2018 09:00:00 23,5 20,6 3 1 10 5 W 0,0
17.08.2018 08:00:00 23,4 20,9 1 1 7 4 SSW -
17.08.2018 07:00:00 23,6 20,7 3 2 9 5 SW 0,0
17.08.2018 06:00:00 23,8 20,9 2 1 8 4 NW 0,0
17.08.2018 05:00:00 23,6 20,7 1 0 4 2 W 0,0
17.08.2018 04:00:00 23,9 20,8 2 1 6 3 NW 0,0
17.08.2018 03:00:00 24,1 20,8 1 1 6 4 W 0,0
17.08.2018 02:00:00 24,2 20,7 2 1 8 5 W -
17.08.2018 01:00:00 24,7 21,0 3 2 8 4 W 0,0
17.08.2018 00:00:00 24,4 21,9 2 1 13 7 WSW 0,0
16.08.2018 23:00:00 24,4 22,7 6 3 12 7 SSW 0,0
16.08.2018 22:00:00 24,6 22,3 4 2 10 6 SSW 0,0
16.08.2018 21:00:00 24,9 22,0 2 1 9 5 SSE 0,0
16.08.2018 20:00:00 - - - - - - - -
16.08.2018 19:00:00 25,9 22,6 5 3 12 7 S 0,0
16.08.2018 18:00:00 25,6 22,3 9 5 15 8 SSW 0,0
16.08.2018 17:00:00 26,3 21,7 4 2 20 11 SW 0,0
16.08.2018 16:00:00 25,6 22,1 14 7 21 12 SSW 0,0
16.08.2018 15:00:00 24,4 22,3 16 9 23 13 SSW 0,0
16.08.2018 14:00:00 24,2 22,5 14 7 19 10 SSW -
16.08.2018 13:00:00 24,6 22,7 11 6 17 9 SSW 0,0
16.08.2018 12:00:00 24,3 22,9 10 5 18 10 SSW 0,0
16.08.2018 11:00:00 24,3 22,7 7 4 16 8 SSW 0,0
16.08.2018 10:00:00 24,4 22,7 6 3 12 7 SSW 0,0
16.08.2018 09:00:00 24,0 22,3 3 1 8 5 W 0,0
16.08.2018 08:00:00 23,7 22,0 3 1 8 5 W -
16.08.2018 07:00:00 23,5 22,1 1 1 6 4 W 0,0
16.08.2018 06:00:00 23,6 22,6 3 2 8 4 SW 0,0
16.08.2018 05:00:00 23,8 22,9 3 2 10 5 WNW 0,0
16.08.2018 04:00:00 24,0 22,6 2 1 7 4 W 0,0
16.08.2018 03:00:00 24,0 22,6 1 1 11 6 SW 0,0
16.08.2018 02:00:00 24,0 22,6 5 3 9 5 SSW -
16.08.2018 01:00:00 24,2 23,0 7 4 10 5 SSW 0,0
16.08.2018 00:00:00 24,5 23,6 4 2 14 8 SSW 0,0
15.08.2018 23:00:00 25,9 24,5 4 2 5 3 S 0,0
15.08.2018 22:00:00 25,9 24,1 5 3 11 6 SSW 0,0
15.08.2018 21:00:00 27,1 23,3 6 3 14 8 E 0,0
15.08.2018 20:00:00 27,7 23,7 9 5 16 9 E -
15.08.2018 19:00:00 28,5 23,8 7 4 12 7 E 0,0
15.08.2018 18:00:00 28,4 24,2 5 3 10 5 E 0,0
15.08.2018 17:00:00 28,3 24,5 5 3 12 7 ESE 0,0
15.08.2018 16:00:00 28,4 25,0 9 5 14 8 E 0,0
15.08.2018 15:00:00 28,1 25,1 8 5 19 10 E 0,0
15.08.2018 14:00:00 26,9 24,9 11 6 17 9 ENE -
15.08.2018 13:00:00 25,8 24,9 4 2 7 4 ESE 0,0
15.08.2018 12:00:00 25,1 24,6 4 2 9 5 SE 0,0
15.08.2018 11:00:00 24,8 24,3 8 4 14 8 SE 0,0
15.08.2018 10:00:00 24,7 24,4 8 5 13 7 E 0,0
15.08.2018 09:00:00 24,4 23,9 9 5 19 10 ESE 0,0
15.08.2018 08:00:00 24,4 23,9 12 7 19 10 E -
15.08.2018 07:00:00 24,5 24,0 14 7 27 15 ENE 0,0
15.08.2018 06:00:00 24,4 23,9 19 10 30 16 E 0,0
15.08.2018 05:00:00 24,4 23,7 19 10 30 16 ENE 0,0
15.08.2018 04:00:00 24,8 23,8 16 9 22 12 ENE 0,0
15.08.2018 03:00:00 24,9 23,1 16 9 21 12 E 0,0
15.08.2018 02:00:00 24,5 22,6 12 6 20 11 E -
15.08.2018 01:00:00 24,1 22,0 11 6 19 10 E 0,0
15.08.2018 00:00:00 24,9 23,5 11 6 17 9 E 0,0
14.08.2018 23:00:00 25,1 23,2 12 7 20 11 E 0,0
14.08.2018 22:00:00 25,1 22,6 14 8 21 11 ESE 0,0
14.08.2018 21:00:00 25,7 21,4 9 5 23 12 ENE 0,0
14.08.2018 20:00:00 27,6 19,7 10 6 22 12 NE -
14.08.2018 19:00:00 31,3 19,0 4 2 15 8 WSW 0,0

tt = Température de l'air
td = dewpoint
ff = Vitesse du vent
fx = gusts
dd = Direction du vent
rr = Quantités de précipitations

stations d'obs. à proximité